createdAt,value
2019-03-18T00:00:32.457Z,23.1
2019-03-18T00:01:22.404Z,23.2
2019-03-18T00:02:12.214Z,23.3
2019-03-18T00:03:02.512Z,23.4
2019-03-18T00:03:52.624Z,23.5
2019-03-18T00:04:43.451Z,23.6
2019-03-18T00:05:32.499Z,23.7
2019-03-18T00:06:21.944Z,23.8
2019-03-18T00:07:13.404Z,23.9
2019-03-18T00:08:03.171Z,23.9
2019-03-18T00:08:52.934Z,23.9
2019-03-18T00:09:42.982Z,23.6
2019-03-18T00:10:31.851Z,23
2019-03-18T00:11:23.103Z,22.6
2019-03-18T00:12:13.006Z,22.3
2019-03-18T00:13:03.826Z,22
2019-03-18T00:13:53.078Z,21.8
2019-03-18T00:14:43.094Z,21.6
2019-03-18T00:15:33.274Z,21.5
2019-03-18T00:16:22.971Z,21.3
2019-03-18T00:17:13.903Z,21.2
2019-03-18T00:18:03.373Z,21.1
2019-03-18T00:18:53.178Z,21
2019-03-18T00:19:46.265Z,20.9
2019-03-18T00:20:32.941Z,20.8
2019-03-18T00:21:23.585Z,20.8
2019-03-18T00:22:13.601Z,20.7
2019-03-18T00:23:04.268Z,20.6
2019-03-18T00:23:53.775Z,20.5
2019-03-18T00:24:44.422Z,20.4
2019-03-18T00:25:34.775Z,20.3
2019-03-18T00:26:23.640Z,20.3
2019-03-18T00:27:12.853Z,20.2
2019-03-18T00:28:04.583Z,20.1
2019-03-18T00:28:54.392Z,20.1
2019-03-18T00:29:44.783Z,20
2019-03-18T00:30:34.337Z,19.9
2019-03-18T00:31:23.983Z,19.8
2019-03-18T00:32:14.626Z,19.7
2019-03-18T00:33:07.883Z,19.6
2019-03-18T00:33:54.472Z,19.6
2019-03-18T00:34:44.510Z,19.5
2019-03-18T00:35:34.900Z,19.4
2019-03-18T00:36:25.214Z,19.4
2019-03-18T00:37:14.800Z,19.3
2019-03-18T00:38:05.622Z,19.3
2019-03-18T00:38:54.824Z,19.2
2019-03-18T00:39:44.743Z,19.4
2019-03-18T00:40:34.974Z,20.1
2019-03-18T00:41:24.202Z,20.8
2019-03-18T00:42:15.920Z,21.4
2019-03-18T00:43:04.914Z,21.8
2019-03-18T00:43:55.752Z,22.1
2019-03-18T00:44:44.964Z,22.4
2019-03-18T00:45:35.608Z,22.6
2019-03-18T00:46:25.937Z,22.8
2019-03-18T00:47:15.210Z,22.9
2019-03-18T00:48:05.860Z,23
2019-03-18T00:48:55.557Z,23.1
2019-03-18T00:49:45.866Z,23.3
2019-03-18T00:50:35.675Z,23.4
2019-03-18T00:51:25.445Z,23.5
2019-03-18T00:52:16.136Z,23.6
2019-03-18T00:53:06.411Z,23.7
2019-03-18T00:53:56.177Z,23.8
2019-03-18T00:54:46.006Z,23.9
2019-03-18T00:55:36.946Z,23.9
2019-03-18T00:56:26.995Z,23.7
2019-03-18T00:57:16.279Z,23.1
2019-03-18T00:58:06.538Z,22.7
2019-03-18T00:58:56.013Z,22.3
2019-03-18T00:59:45.573Z,22.1
2019-03-18T01:00:36.248Z,21.8
2019-03-18T01:01:25.966Z,21.6
2019-03-18T01:02:17.091Z,21.4
2019-03-18T01:03:06.388Z,21.4
2019-03-18T01:03:56.697Z,21.2
2019-03-18T01:05:36.814Z,21
2019-03-18T01:06:26.678Z,20.9
2019-03-18T01:07:16.319Z,20.8
2019-03-18T01:08:06.834Z,20.8
2019-03-18T01:08:57.560Z,20.6
2019-03-18T01:09:47.720Z,20.6
2019-03-18T01:10:37.730Z,20.5
2019-03-18T01:11:26.330Z,20.4
2019-03-18T01:12:16.953Z,20.3
2019-03-18T01:13:07.016Z,20.3
2019-03-18T01:13:57.360Z,20.2
2019-03-18T01:14:48.308Z,20.1
2019-03-18T01:15:38.068Z,20.1
2019-03-18T01:16:27.510Z,19.9
2019-03-18T01:17:18.157Z,19.9
2019-03-18T01:18:08.662Z,19.8
2019-03-18T01:18:57.743Z,19.7
2019-03-18T01:19:47.239Z,19.6
2019-03-18T01:20:37.899Z,19.6
2019-03-18T01:21:28.492Z,19.5
2019-03-18T01:22:18.509Z,19.4
2019-03-18T01:23:07.880Z,19.4
2019-03-18T01:23:58.506Z,19.3
2019-03-18T01:24:48.422Z,19.3
2019-03-18T01:25:38.167Z,19.2
2019-03-18T01:26:28.683Z,19.3
2019-03-18T01:27:18.392Z,19.9
2019-03-18T01:28:09.575Z,20.6
2019-03-18T01:28:58.455Z,21.2
2019-03-18T01:29:48.787Z,21.7
2019-03-18T01:30:38.848Z,22.1
2019-03-18T01:31:29.524Z,22.3
2019-03-18T01:32:19.527Z,22.4
2019-03-18T01:33:09.052Z,22.4
2019-03-18T01:33:58.547Z,21.8
2019-03-18T01:34:49.467Z,20.9
2019-03-18T01:35:41.655Z,20.4
2019-03-18T01:36:29.045Z,20.3
2019-03-18T01:37:19.552Z,20.6
2019-03-18T01:38:58.853Z,21.6
2019-03-18T01:39:49.223Z,22
2019-03-18T01:40:40.157Z,22.3
2019-03-18T01:41:29.989Z,22.6
2019-03-18T01:42:21.733Z,22.7
2019-03-18T01:43:09.544Z,22.9
2019-03-18T01:43:59.823Z,23
2019-03-18T01:44:50.154Z,23.1
2019-03-18T01:45:49.493Z,23.3
2019-03-18T01:46:29.982Z,23.4
2019-03-18T01:47:19.298Z,23.4
2019-03-18T01:48:10.153Z,23.5
2019-03-18T01:49:00.177Z,23.6
2019-03-18T01:49:50.220Z,23.7
2019-03-18T01:50:40.848Z,23.8
2019-03-18T01:51:29.803Z,23.8
2019-03-18T01:52:20.145Z,23.2
2019-03-18T01:53:10.185Z,22.8
2019-03-18T01:54:00.571Z,22.4
2019-03-18T01:54:50.898Z,22.1
2019-03-18T01:55:40.627Z,21.8
2019-03-18T01:56:31.416Z,21.6
2019-03-18T01:57:20.765Z,21.4
2019-03-18T01:58:10.903Z,21.3
2019-03-18T01:59:00.933Z,21.2
2019-03-18T01:59:50.930Z,21.1
2019-03-18T02:00:41.003Z,20.9
2019-03-18T02:01:30.515Z,20.9
2019-03-18T02:02:21.715Z,20.8
2019-03-18T02:03:10.733Z,20.5
2019-03-18T02:04:01.255Z,20.4
2019-03-18T02:04:51.595Z,20.3
2019-03-18T02:05:41.377Z,20.1
2019-03-18T02:06:31.015Z,20.1
2019-03-18T02:07:20.677Z,19.9
2019-03-18T02:08:11.279Z,19.9
2019-03-18T02:09:01.597Z,19.8
2019-03-18T02:09:50.867Z,19.8
2019-03-18T02:10:42.315Z,19.6
2019-03-18T02:11:31.755Z,19.6
2019-03-18T02:12:22.125Z,19.4
2019-03-18T02:13:11.607Z,19.4
2019-03-18T02:14:01.468Z,19.4
2019-03-18T02:14:51.849Z,19.3
2019-03-18T02:15:55.709Z,19.3
2019-03-18T02:16:31.601Z,19.2
2019-03-18T02:17:21.827Z,19.2
2019-03-18T02:18:12.126Z,19.1
2019-03-18T02:19:02.354Z,19
2019-03-18T02:19:53.013Z,19
2019-03-18T02:20:42.814Z,18.9
2019-03-18T02:21:32.559Z,18.8
2019-03-18T02:22:22.616Z,18.8
2019-03-18T02:23:12.644Z,19.1
2019-03-18T02:24:02.812Z,20
2019-03-18T02:24:53.318Z,20.7
2019-03-18T02:25:42.519Z,21.2
2019-03-18T02:26:32.071Z,21.8
2019-03-18T02:27:22.159Z,22.1
2019-03-18T02:28:13.639Z,22.3
2019-03-18T02:29:03.191Z,22.5
2019-03-18T02:29:53.678Z,22.6
2019-03-18T02:30:43.533Z,22.8
2019-03-18T02:31:33.384Z,22.9
2019-03-18T02:32:23.467Z,23
2019-03-18T02:33:13.942Z,23.1
2019-03-18T02:34:02.528Z,23.3
2019-03-18T02:34:53.608Z,23.3
2019-03-18T02:35:43.119Z,23.4
2019-03-18T02:36:33.969Z,23.5
2019-03-18T02:37:24.335Z,23.6
2019-03-18T02:38:14.209Z,23.7
2019-03-18T02:39:04.178Z,23.8
2019-03-18T02:39:53.986Z,23.6
2019-03-18T02:40:44.390Z,23.1
2019-03-18T02:41:33.764Z,22.6
2019-03-18T02:42:23.906Z,22.3
2019-03-18T02:43:13.116Z,21.9
2019-03-18T02:44:03.411Z,21.8
2019-03-18T02:44:54.383Z,21.6
2019-03-18T02:45:44.953Z,21.4
2019-03-18T02:46:34.035Z,21.3
2019-03-18T02:48:14.303Z,21
2019-03-18T02:49:05.271Z,20.9
2019-03-18T02:49:54.685Z,20.9
2019-03-18T02:50:44.701Z,20.8
2019-03-18T02:51:35.148Z,20.6
2019-03-18T02:52:24.625Z,20.4
2019-03-18T02:53:15.758Z,20.3
2019-03-18T02:54:05.075Z,20.1
2019-03-18T02:54:55.597Z,20
2019-03-18T02:55:45.095Z,19.9
2019-03-18T02:56:35.450Z,19.8
2019-03-18T02:57:25.272Z,19.8
2019-03-18T02:58:14.999Z,19.6
2019-03-18T02:59:05.179Z,19.6
2019-03-18T02:59:55.492Z,19.5
2019-03-18T03:00:45.243Z,19.5
2019-03-18T03:01:35.258Z,19.4
2019-03-18T03:02:25.811Z,19.4
2019-03-18T03:03:15.147Z,19.3
2019-03-18T03:04:06.438Z,19.3
2019-03-18T03:07:36.732Z,18.9
2019-03-18T03:08:26.690Z,18.9
2019-03-18T03:09:16.626Z,18.8
2019-03-18T03:10:06.782Z,18.8
2019-03-18T03:10:56.502Z,19.2
2019-03-18T03:11:47.081Z,20.1
2019-03-18T03:12:37.529Z,20.8
2019-03-18T03:13:27.232Z,21.3
2019-03-18T03:14:17.345Z,21.8
2019-03-18T03:15:06.844Z,22.1
2019-03-18T03:15:57.746Z,22.3
2019-03-18T03:16:47.448Z,22.4
2019-03-18T03:17:38.079Z,22.6
2019-03-18T03:18:27.683Z,22.8
2019-03-18T03:19:17.763Z,22.9
2019-03-18T03:20:08.086Z,23
2019-03-18T03:20:57.188Z,23.1
2019-03-18T03:21:47.524Z,23.2
2019-03-18T03:22:36.797Z,23.3
2019-03-18T03:23:27.679Z,23.4
2019-03-18T03:24:18.213Z,23.5
2019-03-18T03:25:08.268Z,23.6
2019-03-18T03:25:58.421Z,23.6
2019-03-18T03:26:48.315Z,23.7
2019-03-18T03:27:38.402Z,23.6
2019-03-18T03:28:28.546Z,23
2019-03-18T03:29:17.956Z,22.5
2019-03-18T03:30:08.983Z,22.2
2019-03-18T03:30:59.180Z,21.9
2019-03-18T03:31:48.498Z,21.7
2019-03-18T03:32:39.276Z,21.5
2019-03-18T03:33:28.899Z,21.3
2019-03-18T03:34:22.254Z,21.2
2019-03-18T03:35:09.689Z,21.1
2019-03-18T03:35:57.981Z,20.9
2019-03-18T03:36:48.625Z,20.9
2019-03-18T03:37:39.391Z,20.8
2019-03-18T03:38:28.673Z,20.7
2019-03-18T03:39:18.566Z,20.5
2019-03-18T03:40:09.620Z,20.4
2019-03-18T03:40:58.941Z,20.3
2019-03-18T03:41:49.372Z,20.1
2019-03-18T03:42:38.941Z,20
2019-03-18T03:43:29.619Z,19.9
2019-03-18T03:44:19.493Z,19.8
2019-03-18T03:45:09.909Z,19.8
2019-03-18T03:45:59.325Z,19.6
2019-03-18T03:46:52.159Z,19.6
2019-03-18T03:47:39.799Z,19.5
2019-03-18T03:48:29.463Z,19.4
2019-03-18T03:49:19.567Z,19.4
2019-03-18T03:50:09.990Z,19.4
2019-03-18T03:50:59.860Z,19.3
2019-03-18T03:51:49.152Z,19.2
2019-03-18T03:52:40.232Z,19.2
2019-03-18T03:53:33.932Z,19.1
2019-03-18T03:54:20.492Z,19
2019-03-18T03:55:10.641Z,18.9
2019-03-18T03:55:59.995Z,18.9
2019-03-18T03:56:50.881Z,18.8
2019-03-18T03:57:39.969Z,18.8
2019-03-18T03:58:30.559Z,18.8
2019-03-18T03:59:21.256Z,19.3
2019-03-18T04:00:10.744Z,20.1
2019-03-18T04:01:00.090Z,20.8
2019-03-18T04:01:50.190Z,21.3
2019-03-18T04:02:41.572Z,21.8
2019-03-18T04:03:47.291Z,22
2019-03-18T04:04:20.681Z,22.3
2019-03-18T04:05:10.284Z,22.4
2019-03-18T04:06:00.302Z,22.5
2019-03-18T04:06:50.769Z,22.6
2019-03-18T04:07:41.070Z,22.8
2019-03-18T04:08:31.091Z,22.9
2019-03-18T04:09:20.794Z,22.9
2019-03-18T04:10:11.421Z,23.1
2019-03-18T04:11:01.314Z,23.1
2019-03-18T04:11:51.552Z,23.3
2019-03-18T04:12:42.019Z,22.8
2019-03-18T04:13:31.009Z,22.1
2019-03-18T04:14:21.846Z,21.1
2019-03-18T04:15:11.246Z,20.6
2019-03-18T04:16:01.806Z,20.5
2019-03-18T04:17:11.095Z,20.9
2019-03-18T04:17:41.814Z,21.6
2019-03-18T04:18:31.607Z,21.9
2019-03-18T04:19:21.945Z,22.3
2019-03-18T04:20:11.213Z,22.5
2019-03-18T04:21:02.583Z,22.7
2019-03-18T04:21:56.324Z,22.8
2019-03-18T04:22:41.967Z,23
2019-03-18T04:23:32.402Z,23.1
2019-03-18T04:24:21.323Z,23.2
2019-03-18T04:25:26.927Z,23.3
2019-03-18T04:26:02.460Z,23.4
2019-03-18T04:26:51.510Z,23.4
2019-03-18T04:27:42.777Z,23.5
2019-03-18T04:28:32.317Z,23.4
2019-03-18T04:29:22.686Z,22.8
2019-03-18T04:30:13.145Z,22.4
2019-03-18T04:31:02.905Z,22.1
2019-03-18T04:31:52.886Z,21.8
2019-03-18T04:32:43.315Z,21.5
2019-03-18T04:33:32.878Z,21.3
2019-03-18T04:35:12.522Z,21.1
2019-03-18T04:36:03.220Z,20.9
2019-03-18T04:36:53.748Z,20.8
2019-03-18T04:37:42.816Z,20.7
2019-03-18T04:38:33.301Z,20.7
2019-03-18T04:39:22.345Z,20.6
2019-03-18T04:40:12.894Z,20.4
2019-03-18T04:41:03.405Z,20.3
2019-03-18T04:41:52.631Z,20.1
2019-03-18T04:42:43.787Z,19.9
2019-03-18T04:43:33.850Z,19.8
2019-03-18T04:44:23.354Z,19.8
2019-03-18T04:45:13.741Z,19.6
2019-03-18T04:46:03.751Z,19.6
2019-03-18T04:46:53.306Z,19.5
2019-03-18T04:47:44.454Z,19.4
2019-03-18T04:48:33.732Z,19.4
2019-03-18T04:49:23.757Z,19.4
2019-03-18T04:50:12.703Z,19.4
2019-03-18T04:51:04.696Z,19.3
2019-03-18T04:51:53.746Z,19.3
2019-03-18T04:52:43.174Z,19.2
2019-03-18T04:53:34.298Z,19.1
2019-03-18T04:54:24.116Z,19.1
2019-03-18T04:55:14.466Z,19
2019-03-18T04:56:04.740Z,18.9
2019-03-18T04:56:54.578Z,18.8
2019-03-18T04:57:44.084Z,18.8
2019-03-18T04:59:24.020Z,18.9
2019-03-18T05:00:13.743Z,19.6
2019-03-18T05:01:03.968Z,20.3
2019-03-18T05:01:54.137Z,20.9
2019-03-18T05:02:43.942Z,21.4
2019-03-18T05:03:35.103Z,21.8
2019-03-18T05:04:24.030Z,22.1
2019-03-18T05:05:14.735Z,22.3
2019-03-18T05:06:04.715Z,22.4
2019-03-18T05:06:55.308Z,22.6
2019-03-18T05:07:44.014Z,22.6
2019-03-18T05:08:34.940Z,22.8
2019-03-18T05:09:24.968Z,22.8
2019-03-18T05:10:15.071Z,22.9
2019-03-18T05:11:05.055Z,23
2019-03-18T05:11:54.223Z,23.1
2019-03-18T05:12:45.405Z,23.2
2019-03-18T05:13:35.616Z,23.3
2019-03-18T05:14:25.105Z,23.3
2019-03-18T05:15:15.527Z,23.4
2019-03-18T05:16:05.227Z,23.5
2019-03-18T05:16:55.697Z,23.3
2019-03-18T05:17:44.932Z,22.7
2019-03-18T05:18:37.875Z,22.3
2019-03-18T05:19:26.207Z,21.9
2019-03-18T05:20:16.020Z,21.7
2019-03-18T05:21:05.597Z,21.5
2019-03-18T05:21:56.076Z,21.3
2019-03-18T05:22:47.046Z,21.2
2019-03-18T05:23:35.637Z,21.1
2019-03-18T05:24:25.961Z,20.9
2019-03-18T05:25:16.081Z,20.9
2019-03-18T05:26:06.931Z,20.8
2019-03-18T05:26:56.524Z,20.7
2019-03-18T05:27:45.950Z,20.6
2019-03-18T05:28:36.506Z,20.4
2019-03-18T05:29:26.434Z,20.3
2019-03-18T05:30:16.013Z,20.2
2019-03-18T05:31:06.009Z,20.1
2019-03-18T05:31:56.711Z,19.9
2019-03-18T05:32:46.420Z,19.8
2019-03-18T05:33:36.231Z,19.7
2019-03-18T05:34:26.263Z,19.7
2019-03-18T05:35:16.903Z,19.5
2019-03-18T05:36:06.986Z,19.3
2019-03-18T05:36:57.575Z,19.1
2019-03-18T05:37:46.621Z,19
2019-03-18T05:38:37.076Z,18.9
2019-03-18T05:39:26.302Z,18.8
2019-03-18T05:45:17.452Z,18.6
2019-03-18T05:46:07.234Z,18.6
2019-03-18T05:46:56.777Z,18.5
2019-03-18T05:47:48.691Z,18.5
2019-03-18T05:48:38.146Z,19
2019-03-18T05:49:28.036Z,19.8
2019-03-18T05:50:18.243Z,20.5
2019-03-18T05:51:07.361Z,21
2019-03-18T05:51:58.227Z,21.3
2019-03-18T05:52:48.569Z,21.7
2019-03-18T05:53:37.759Z,21.9
2019-03-18T05:54:28.668Z,22.1
2019-03-18T05:55:17.962Z,22.3
2019-03-18T05:56:07.595Z,22.5
2019-03-18T05:56:58.763Z,22.6
2019-03-18T05:57:48.816Z,22.8
2019-03-18T05:58:38.446Z,22.9
2019-03-18T05:59:28.413Z,23.1
2019-03-18T06:00:18.091Z,23.2
2019-03-18T06:01:07.990Z,23.3
2019-03-18T06:01:58.483Z,23.4
2019-03-18T06:02:52.045Z,23.5
2019-03-18T06:05:36.255Z,22.9
2019-03-18T06:06:26.358Z,22.4
2019-03-18T06:07:16.106Z,22.1
2019-03-18T06:08:06.848Z,21.8
2019-03-18T06:08:56.658Z,21.6
2019-03-18T06:09:46.305Z,21.4
2019-03-18T06:10:35.348Z,21.3
2019-03-18T06:12:17.102Z,21
2019-03-18T06:13:07.066Z,20.9
2019-03-18T06:14:00.263Z,20.8
2019-03-18T06:14:47.563Z,20.7
2019-03-18T06:15:36.485Z,20.6
2019-03-18T06:16:27.037Z,20.6
2019-03-18T06:17:17.655Z,20.4
2019-03-18T06:18:07.036Z,20.4
2019-03-18T06:18:56.946Z,20.3
2019-03-18T06:19:47.528Z,20.3
2019-03-18T06:20:36.865Z,20.1
2019-03-18T06:21:26.842Z,20.1
2019-03-18T06:22:16.472Z,20
2019-03-18T06:23:06.477Z,19.9
2019-03-18T06:23:57.592Z,19.9
2019-03-18T06:24:48.275Z,19.8
2019-03-18T06:25:37.327Z,19.8
2019-03-18T06:26:27.825Z,19.6
2019-03-18T06:27:16.787Z,19.6
2019-03-18T06:28:08.704Z,19.5
2019-03-18T06:28:58.504Z,19.4
2019-03-18T06:29:47.491Z,19.4
2019-03-18T06:30:37.781Z,19.3
2019-03-18T06:31:27.859Z,19.3
2019-03-18T06:32:18.222Z,19.1
2019-03-18T06:33:08.606Z,19.1
2019-03-18T06:33:58.042Z,19
2019-03-18T06:34:47.528Z,18.9
2019-03-18T06:35:38.720Z,18.9
2019-03-18T06:36:28.929Z,18.9
2019-03-18T06:37:18.541Z,18.8
2019-03-18T06:38:07.771Z,18.8
2019-03-18T06:39:48.724Z,18.6
2019-03-18T06:40:39.041Z,18.6
2019-03-18T06:41:29.398Z,18.5
2019-03-18T06:42:21.896Z,18.4
2019-03-18T06:43:08.508Z,18.4
2019-03-18T06:43:59.666Z,18.3
2019-03-18T06:44:49.123Z,18.3
2019-03-18T06:45:39.158Z,18.2
2019-03-18T06:46:27.798Z,18.2
2019-03-18T06:47:18.778Z,18.1
2019-03-18T06:48:16.843Z,18.1
2019-03-18T06:49:00.255Z,18
2019-03-18T06:49:50.033Z,17.9
2019-03-18T06:50:38.478Z,17.9
2019-03-18T06:51:29.864Z,17.9
2019-03-18T06:52:19.782Z,17.8
2019-03-18T06:53:08.985Z,17.8
2019-03-18T06:53:59.569Z,17.7
2019-03-18T06:54:49.606Z,17.7
2019-03-18T06:55:39.415Z,17.6
2019-03-18T06:56:30.079Z,17.6
2019-03-18T06:57:19.527Z,17.6
2019-03-18T06:58:10.375Z,17.6
2019-03-18T06:58:59.402Z,17.5
2019-03-18T06:59:50.468Z,17.4
2019-03-18T07:00:39.956Z,17.4
2019-03-18T07:01:29.737Z,17.3
2019-03-18T07:02:19.497Z,17.3
2019-03-18T07:03:10.427Z,17.3
2019-03-18T10:06:37.315Z,18.3
2019-03-18T10:07:26.077Z,18.2
2019-03-18T10:08:17.230Z,18.2
2019-03-18T10:09:20.542Z,18.1
2019-03-18T10:09:56.022Z,18.1
2019-03-18T10:10:47.459Z,18.1
2019-03-18T10:11:37.255Z,18
2019-03-18T10:12:56.297Z,17.9
2019-03-18T10:13:17.349Z,17.9
2019-03-18T10:14:24.708Z,17.9
2019-03-18T10:14:58.028Z,17.8
2019-03-18T10:15:46.797Z,17.8
2019-03-18T10:16:36.840Z,17.8
2019-03-18T10:17:27.692Z,17.7
2019-03-18T10:18:17.456Z,17.7
2019-03-18T10:19:06.449Z,17.6
2019-03-18T10:20:00.604Z,17.6
2019-03-18T10:20:47.134Z,17.5
2019-03-18T10:21:36.661Z,17.5
2019-03-18T10:22:27.194Z,17.4
2019-03-18T10:23:17.322Z,17.4
2019-03-18T10:24:08.207Z,17.4
2019-03-18T10:24:57.476Z,17.3
2019-03-18T10:25:47.804Z,17.3
2019-03-18T10:26:37.521Z,17.3
2019-03-18T10:27:27.368Z,17.4
2019-03-18T10:28:20.533Z,18.3
2019-03-18T10:29:08.556Z,19.7
2019-03-18T10:29:57.488Z,20.7
2019-03-18T10:30:47.350Z,21.4
2019-03-18T10:31:38.204Z,22
2019-03-18T10:32:27.383Z,22.5
2019-03-18T10:33:18.869Z,22.9
2019-03-18T10:34:08.651Z,23.3
2019-03-18T10:34:57.926Z,23.6
2019-03-18T10:35:48.189Z,23.1
2019-03-18T10:36:38.807Z,22.5
2019-03-18T10:37:28.936Z,22
2019-03-18T10:38:18.907Z,21.7
2019-03-18T10:39:08.714Z,21.4
2019-03-18T10:39:59.303Z,21.2
2019-03-18T10:40:48.580Z,21.1
2019-03-18T10:41:38.689Z,20.9
2019-03-18T10:42:28.678Z,20.8
2019-03-18T10:43:19.028Z,20.6
2019-03-18T10:44:08.521Z,20.6
2019-03-18T10:45:13.294Z,20.4
2019-03-18T10:45:48.904Z,20.4
2019-03-18T10:46:38.963Z,20.3
2019-03-18T10:47:29.103Z,20.3
2019-03-18T10:48:18.843Z,20.1
2019-03-18T10:49:09.230Z,20.1
2019-03-18T10:49:58.951Z,20
2019-03-18T10:50:48.987Z,19.9
2019-03-18T10:51:40.775Z,19.9
2019-03-18T10:52:30.336Z,19.8
2019-03-18T10:53:20.412Z,19.8
2019-03-18T10:54:09.428Z,19.7
2019-03-18T10:54:59.790Z,19.6
2019-03-18T10:55:50.481Z,19.6
2019-03-18T10:56:43.167Z,19.5
2019-03-18T10:57:29.792Z,19.4
2019-03-18T10:58:22.860Z,19.4
2019-03-18T10:59:09.619Z,19.3
2019-03-18T11:00:03.155Z,19.3
2019-03-18T11:00:49.489Z,19.1
2019-03-18T11:01:39.784Z,19.1
2019-03-18T11:02:30.372Z,19.1
2019-03-18T11:03:19.697Z,19
2019-03-18T11:04:10.261Z,18.9
2019-03-18T11:05:00.031Z,18.9
2019-03-18T11:05:50.098Z,18.8
2019-03-18T11:06:40.216Z,18.8
2019-03-18T11:08:21.361Z,18.6
2019-03-18T11:09:10.897Z,18.6
2019-03-18T11:10:00.864Z,18.5
2019-03-18T11:10:50.446Z,18.4
2019-03-18T11:11:39.571Z,18.4
2019-03-18T11:12:30.820Z,18.4
2019-03-18T11:13:20.470Z,18.3
2019-03-18T11:14:10.977Z,18.3
2019-03-18T11:15:01.179Z,18.3
2019-03-18T11:15:51.390Z,18.2
2019-03-18T11:16:41.431Z,18.1
2019-03-18T11:17:30.951Z,18.1
2019-03-18T11:18:21.905Z,18
2019-03-18T11:19:11.898Z,18
2019-03-18T11:20:06.793Z,18
2019-03-18T11:20:51.185Z,17.9
2019-03-18T11:21:41.758Z,17.9
2019-03-18T11:22:31.546Z,17.8
2019-03-18T11:23:20.770Z,17.8
2019-03-18T11:24:11.686Z,17.8
2019-03-18T11:25:02.184Z,17.7
2019-03-18T11:25:52.330Z,17.6
2019-03-18T11:26:42.435Z,17.6
2019-03-18T11:27:32.237Z,17.6
2019-03-18T11:28:21.459Z,17.6
2019-03-18T11:29:14.670Z,17.5
2019-03-18T11:30:02.405Z,17.4
2019-03-18T11:30:52.167Z,17.4
2019-03-18T11:31:41.488Z,17.4
2019-03-18T11:32:32.614Z,17.4
2019-03-18T11:33:22.670Z,17.3
2019-03-18T11:34:12.117Z,18
2019-03-18T11:35:02.310Z,19.4
2019-03-18T11:35:56.149Z,20.5
2019-03-18T11:36:42.871Z,21.5
2019-03-18T11:37:31.797Z,22.1
2019-03-18T11:38:22.775Z,22.6
2019-03-18T11:39:13.049Z,23
2019-03-18T11:40:03.037Z,23.4
2019-03-18T11:40:53.654Z,23.6
2019-03-18T11:41:45.754Z,23.1
2019-03-18T11:42:33.319Z,22.4
2019-03-18T11:43:23.118Z,22.1
2019-03-18T11:44:12.874Z,21.8
2019-03-18T11:45:04.027Z,21.5
2019-03-18T11:45:53.587Z,21.3
2019-03-18T11:46:45.663Z,21.1
2019-03-18T11:47:32.334Z,20.9
2019-03-18T11:48:23.971Z,20.8
2019-03-18T11:49:13.787Z,20.6
2019-03-18T11:50:17.059Z,20.6
2019-03-18T11:50:53.614Z,20.5
2019-03-18T11:51:43.889Z,20.4
2019-03-18T11:52:37.189Z,20.4
2019-03-18T11:53:22.986Z,20.3
2019-03-18T11:54:14.195Z,20.2
2019-03-18T11:55:04.231Z,20.1
2019-03-18T11:55:54.255Z,20.1
2019-03-18T11:56:43.776Z,20
2019-03-18T11:57:34.371Z,19.9
2019-03-18T11:58:24.453Z,19.9
2019-03-18T11:59:14.019Z,19.8
2019-03-18T12:00:05.318Z,19.8
2019-03-18T12:00:54.916Z,19.6
2019-03-18T12:01:44.361Z,19.6
2019-03-18T12:02:36.881Z,19.6
2019-03-18T12:03:24.238Z,19.4
2019-03-18T12:04:14.827Z,19.4
2019-03-18T12:06:35.420Z,19.3
2019-03-18T12:07:24.118Z,19.2
2019-03-18T12:08:15.098Z,19.1
2019-03-18T12:09:06.435Z,19.1
2019-03-18T12:09:56.524Z,19.1
2019-03-18T12:10:46.562Z,19
2019-03-18T12:11:36.900Z,18.9
2019-03-18T12:12:27.080Z,18.9
2019-03-18T12:13:16.187Z,18.8
2019-03-18T12:14:07.125Z,18.8
2019-03-18T12:15:46.925Z,18.6
2019-03-18T12:16:36.507Z,18.6
2019-03-18T12:17:29.585Z,18.5
2019-03-18T12:18:15.808Z,18.5
2019-03-18T12:19:07.189Z,18.4
2019-03-18T12:19:57.514Z,18.4
2019-03-18T12:20:47.357Z,18.3
2019-03-18T12:21:37.360Z,18.3
2019-03-18T12:22:27.436Z,18.3
2019-03-18T12:23:17.174Z,18.2
2019-03-18T12:24:07.272Z,18.1
2019-03-18T12:24:57.614Z,18.1
2019-03-18T12:25:46.536Z,18.1
2019-03-18T12:26:37.414Z,18
2019-03-18T12:27:27.216Z,17.9
2019-03-18T12:28:16.737Z,17.9
2019-03-18T12:29:07.358Z,17.9
2019-03-18T12:29:57.385Z,17.8
2019-03-18T12:30:48.014Z,17.8
2019-03-18T12:31:38.371Z,17.8
2019-03-18T12:32:28.491Z,17.7
2019-03-18T12:33:17.684Z,17.6
2019-03-18T12:34:07.866Z,17.6
2019-03-18T12:34:57.774Z,17.6
2019-03-18T12:35:48.428Z,17.6
2019-03-18T12:36:38.166Z,17.5
2019-03-18T12:37:27.946Z,17.5
2019-03-18T12:38:18.851Z,17.4
2019-03-18T12:39:08.418Z,17.4
2019-03-18T12:39:58.706Z,17.4
2019-03-18T12:40:48.751Z,18
2019-03-18T12:41:38.821Z,19.3
2019-03-18T12:42:29.183Z,20.5
2019-03-18T12:43:18.954Z,21.4
2019-03-18T12:44:09.428Z,22.1
2019-03-18T12:44:59.058Z,22.6
2019-03-18T12:45:48.859Z,23.1
2019-03-18T12:46:38.641Z,23.4
2019-03-18T12:47:28.121Z,23.6
2019-03-18T12:48:19.635Z,23
2019-03-18T12:49:09.688Z,22.5
2019-03-18T12:49:59.440Z,22
2019-03-18T12:51:05.168Z,21.7
2019-03-18T12:51:39.550Z,21.4
2019-03-18T12:52:29.862Z,21.3
2019-03-18T12:53:19.128Z,21.1
2019-03-18T12:54:09.168Z,20.9
2019-03-18T12:54:59.768Z,20.8
2019-03-18T12:55:48.448Z,20.8
2019-03-18T12:56:39.625Z,20.6
2019-03-18T12:57:29.925Z,20.6
2019-03-18T12:58:19.547Z,20.5
2019-03-18T12:59:09.537Z,20.4
2019-03-18T12:59:59.865Z,20.3
2019-03-18T13:00:50.487Z,20.3
2019-03-18T13:01:40.624Z,20.2
2019-03-18T13:02:30.190Z,20.1
2019-03-18T13:03:20.719Z,20.1
2019-03-18T13:04:10.453Z,20
2019-03-18T13:05:00.399Z,19.9
2019-03-18T13:05:50.650Z,19.9
2019-03-18T13:06:41.682Z,19.8
2019-03-18T13:07:30.560Z,19.8
2019-03-18T13:08:19.941Z,19.7
2019-03-18T13:09:10.252Z,19.6
2019-03-18T13:10:00.934Z,19.6
2019-03-18T13:10:50.667Z,19.5
2019-03-18T13:11:40.793Z,19.4
2019-03-18T13:12:30.783Z,19.4
2019-03-18T13:13:21.122Z,19.4
2019-03-18T13:14:10.459Z,19.3
2019-03-18T13:15:01.645Z,19.3
2019-03-18T13:15:51.759Z,19.2
2019-03-18T13:16:41.093Z,19.1
2019-03-18T13:17:31.177Z,19.1
2019-03-18T13:18:21.534Z,19
2019-03-18T13:19:11.831Z,18.9
2019-03-18T13:20:01.670Z,18.9
2019-03-18T13:20:51.676Z,18.8
2019-03-18T13:21:41.247Z,18.8
2019-03-18T13:24:11.137Z,18.6
2019-03-18T13:25:01.311Z,18.6
2019-03-18T13:25:51.741Z,18.5
2019-03-18T13:26:42.373Z,18.4
2019-03-18T13:27:31.881Z,18.4
2019-03-18T13:28:21.739Z,18.4
2019-03-18T13:29:12.271Z,18.3
2019-03-18T13:30:02.121Z,18.3
2019-03-18T13:30:51.551Z,18.3
2019-03-18T13:31:42.193Z,18.3
2019-03-18T13:32:32.852Z,18.2
2019-03-18T13:33:22.388Z,18.2
2019-03-18T13:34:11.796Z,18.1
2019-03-18T13:35:02.851Z,18.1
2019-03-18T13:35:52.565Z,18.1
2019-03-18T13:36:42.538Z,18
2019-03-18T13:37:32.593Z,18
2019-03-18T13:38:23.480Z,17.9
2019-03-18T13:39:13.372Z,17.9
2019-03-18T13:40:02.406Z,17.9
2019-03-18T13:40:54.093Z,17.9
2019-03-18T13:41:42.946Z,17.8
2019-03-18T13:42:33.768Z,17.8
2019-03-18T13:43:23.565Z,17.8
2019-03-18T13:44:13.130Z,17.7
2019-03-18T13:45:03.723Z,17.7
2019-03-18T13:46:03.770Z,17.6
2019-03-18T13:46:43.595Z,17.6
2019-03-18T13:47:33.723Z,17.6
2019-03-18T13:48:23.215Z,17.6
2019-03-18T13:49:16.436Z,17.7
2019-03-18T13:50:03.699Z,18.6
2019-03-18T13:50:54.122Z,19.9
2019-03-18T13:51:43.588Z,21.1
2019-03-18T13:52:33.750Z,22
2019-03-18T13:53:22.644Z,22.6
2019-03-18T13:54:13.807Z,23.1
2019-03-18T13:55:04.232Z,23.6
2019-03-18T13:55:54.003Z,23.9
2019-03-18T13:56:43.814Z,23.3
2019-03-18T13:57:33.613Z,22.8
2019-03-18T13:58:24.440Z,22.4
2019-03-18T13:59:14.449Z,22.1
2019-03-18T14:00:04.497Z,21.8
2019-03-18T14:00:54.019Z,21.6
2019-03-18T14:01:44.512Z,21.4
2019-03-18T14:02:34.984Z,21.3
2019-03-18T14:03:24.179Z,21.2
2019-03-18T14:05:04.197Z,21
2019-03-18T14:07:35.905Z,20.7
2019-03-18T14:08:25.665Z,20.6
2019-03-18T14:09:15.532Z,20.6
2019-03-18T14:10:06.640Z,20.5
2019-03-18T14:10:56.138Z,20.4
2019-03-18T14:11:46.014Z,20.3
2019-03-18T14:12:39.241Z,20.3
2019-03-18T14:13:26.625Z,20.3
2019-03-18T14:14:16.647Z,20.2
2019-03-18T14:15:07.535Z,20.1
2019-03-18T14:15:55.960Z,20.1
2019-03-18T14:16:46.624Z,20
2019-03-18T14:17:36.340Z,19.9
2019-03-18T14:18:26.212Z,19.9
2019-03-18T14:19:16.198Z,19.8
2019-03-18T14:20:08.733Z,19.8
2019-03-18T14:20:56.330Z,19.7
2019-03-18T14:21:46.540Z,19.6
2019-03-18T14:22:37.537Z,19.6
2019-03-18T14:23:27.613Z,19.5
2019-03-18T14:24:17.457Z,19.5
2019-03-18T14:25:07.210Z,19.4
2019-03-18T14:25:56.027Z,19.4
2019-03-18T14:26:46.828Z,19.3
2019-03-18T14:27:36.889Z,19.3
2019-03-18T14:28:26.872Z,19.2
2019-03-18T14:29:17.239Z,19.2
2019-03-18T14:30:07.800Z,19.1
2019-03-18T14:30:56.867Z,19.1
2019-03-18T14:31:50.682Z,19
2019-03-18T14:32:37.067Z,18.9
2019-03-18T14:33:27.162Z,18.9
2019-03-18T14:34:16.841Z,18.9
2019-03-18T14:35:07.711Z,18.8